sensor_id;sensor_type;location;lat;lon;timestamp;temperature;humidity
38854;DHT22;24606;51.992;4.198;2022-11-04T00:02:16;16.30;97.30
38854;DHT22;24606;51.992;4.198;2022-11-04T00:07:20;17.20;94.90
38854;DHT22;24606;51.992;4.198;2022-11-04T00:12:39;18.10;93.10
38854;DHT22;24606;51.992;4.198;2022-11-04T00:17:41;18.10;93.40
38854;DHT22;24606;51.992;4.198;2022-11-04T00:22:47;19.10;88.60
38854;DHT22;24606;51.992;4.198;2022-11-04T00:28:10;19.30;88.60
38854;DHT22;24606;51.992;4.198;2022-11-04T00:33:30;19.40;87.30
38854;DHT22;24606;51.992;4.198;2022-11-04T00:38:33;19.70;84.60
38854;DHT22;24606;51.992;4.198;2022-11-04T00:43:35;19.90;83.10
38854;DHT22;24606;51.992;4.198;2022-11-04T00:48:37;19.90;83.20
38854;DHT22;24606;51.992;4.198;2022-11-04T00:53:40;19.40;86.80
38854;DHT22;24606;51.992;4.198;2022-11-04T00:58:42;19.90;83.30
38854;DHT22;24606;51.992;4.198;2022-11-04T01:03:44;19.50;86.10
38854;DHT22;24606;51.992;4.198;2022-11-04T01:08:48;19.90;82.80
38854;DHT22;24606;51.992;4.198;2022-11-04T01:13:50;19.20;87.10
38854;DHT22;24606;51.992;4.198;2022-11-04T01:18:52;19.40;85.80
38854;DHT22;24606;51.992;4.198;2022-11-04T01:23:55;19.90;82.70
38854;DHT22;24606;51.992;4.198;2022-11-04T01:28:58;19.40;86.40
38854;DHT22;24606;51.992;4.198;2022-11-04T01:34:00;19.80;83.10
38854;DHT22;24606;51.992;4.198;2022-11-04T01:39:03;19.90;82.10
38854;DHT22;24606;51.992;4.198;2022-11-04T01:49:40;20.00;81.60
38854;DHT22;24606;51.992;4.198;2022-11-04T01:54:45;20.00;81.70
38854;DHT22;24606;51.992;4.198;2022-11-04T01:59:49;20.00;81.30
38854;DHT22;24606;51.992;4.198;2022-11-04T02:04:51;19.90;81.80
38854;DHT22;24606;51.992;4.198;2022-11-04T02:09:54;19.70;77.40
38854;DHT22;24606;51.992;4.198;2022-11-04T02:14:57;19.90;82.20
38854;DHT22;24606;51.992;4.198;2022-11-04T02:20:09;19.40;85.70
38854;DHT22;24606;51.992;4.198;2022-11-04T02:25:32;19.60;81.70
38854;DHT22;24606;51.992;4.198;2022-11-04T02:30:43;19.10;86.00
38854;DHT22;24606;51.992;4.198;2022-11-04T02:35:53;18.90;85.70
38854;DHT22;24606;51.992;4.198;2022-11-04T02:41:03;19.20;86.10
38854;DHT22;24606;51.992;4.198;2022-11-04T02:46:12;19.40;85.10
38854;DHT22;24606;51.992;4.198;2022-11-04T02:51:19;19.10;86.20
38854;DHT22;24606;51.992;4.198;2022-11-04T02:56:23;19.00;87.80
38854;DHT22;24606;51.992;4.198;2022-11-04T03:01:32;19.40;84.40
38854;DHT22;24606;51.992;4.198;2022-11-04T03:06:36;19.50;83.70
38854;DHT22;24606;51.992;4.198;2022-11-04T03:11:40;19.50;83.70
38854;DHT22;24606;51.992;4.198;2022-11-04T03:16:48;19.70;82.10
38854;DHT22;24606;51.992;4.198;2022-11-04T03:21:53;19.70;81.70
38854;DHT22;24606;51.992;4.198;2022-11-04T03:26:59;19.70;81.50
38854;DHT22;24606;51.992;4.198;2022-11-04T03:32:09;19.80;81.30
38854;DHT22;24606;51.992;4.198;2022-11-04T03:37:15;19.70;81.40
38854;DHT22;24606;51.992;4.198;2022-11-04T03:42:18;19.80;81.20
38854;DHT22;24606;51.992;4.198;2022-11-04T03:47:24;19.80;81.20
38854;DHT22;24606;51.992;4.198;2022-11-04T03:52:27;19.80;81.00
38854;DHT22;24606;51.992;4.198;2022-11-04T03:57:35;19.70;81.30
38854;DHT22;24606;51.992;4.198;2022-11-04T04:02:48;19.20;85.10
38854;DHT22;24606;51.992;4.198;2022-11-04T04:07:58;19.40;82.20
38854;DHT22;24606;51.992;4.198;2022-11-04T04:13:04;19.60;81.50
38854;DHT22;24606;51.992;4.198;2022-11-04T04:18:12;19.60;81.70
38854;DHT22;24606;51.992;4.198;2022-11-04T04:23:18;19.70;81.30
38854;DHT22;24606;51.992;4.198;2022-11-04T04:28:39;19.60;81.90
38854;DHT22;24606;51.992;4.198;2022-11-04T04:33:43;19.40;82.00
38854;DHT22;24606;51.992;4.198;2022-11-04T04:38:45;18.00;85.10
38854;DHT22;24606;51.992;4.198;2022-11-04T04:44:13;19.10;82.50
38854;DHT22;24606;51.992;4.198;2022-11-04T04:49:35;19.20;84.30
38854;DHT22;24606;51.992;4.198;2022-11-04T04:54:37;19.10;85.10
38854;DHT22;24606;51.992;4.198;2022-11-04T04:59:39;19.40;82.50
38854;DHT22;24606;51.992;4.198;2022-11-04T05:04:42;19.50;81.50
38854;DHT22;24606;51.992;4.198;2022-11-04T05:09:44;19.50;81.40
38854;DHT22;24606;51.992;4.198;2022-11-04T05:14:45;19.60;81.10
38854;DHT22;24606;51.992;4.198;2022-11-04T05:19:49;19.60;81.30
38854;DHT22;24606;51.992;4.198;2022-11-04T05:24:51;19.60;81.00
38854;DHT22;24606;51.992;4.198;2022-11-04T05:29:52;19.60;80.70
38854;DHT22;24606;51.992;4.198;2022-11-04T05:34:56;19.60;80.90
38854;DHT22;24606;51.992;4.198;2022-11-04T05:39:58;19.60;80.70
38854;DHT22;24606;51.992;4.198;2022-11-04T05:44:59;19.60;80.60
38854;DHT22;24606;51.992;4.198;2022-11-04T05:50:03;19.70;80.20
38854;DHT22;24606;51.992;4.198;2022-11-04T05:55:06;19.70;80.20
38854;DHT22;24606;51.992;4.198;2022-11-04T06:00:10;19.70;80.30
38854;DHT22;24606;51.992;4.198;2022-11-04T06:05:13;19.70;80.20
38854;DHT22;24606;51.992;4.198;2022-11-04T06:10:15;19.80;80.40
38854;DHT22;24606;51.992;4.198;2022-11-04T06:15:17;19.70;80.70
38854;DHT22;24606;51.992;4.198;2022-11-04T06:20:20;19.80;80.70
38854;DHT22;24606;51.992;4.198;2022-11-04T06:25:22;19.80;80.60
38854;DHT22;24606;51.992;4.198;2022-11-04T06:30:24;19.80;80.60
38854;DHT22;24606;51.992;4.198;2022-11-04T06:35:27;19.80;80.60
38854;DHT22;24606;51.992;4.198;2022-11-04T06:40:29;19.90;80.20
38854;DHT22;24606;51.992;4.198;2022-11-04T06:45:32;19.80;80.70
38854;DHT22;24606;51.992;4.198;2022-11-04T06:50:35;19.80;80.70
38854;DHT22;24606;51.992;4.198;2022-11-04T06:55:37;19.80;81.60
38854;DHT22;24606;51.992;4.198;2022-11-04T07:00:39;19.80;80.90
38854;DHT22;24606;51.992;4.198;2022-11-04T07:15:26;19.80;80.70
38854;DHT22;24606;51.992;4.198;2022-11-04T07:20:28;19.90;81.30
38854;DHT22;24606;51.992;4.198;2022-11-04T07:25:30;19.80;82.10
38854;DHT22;24606;51.992;4.198;2022-11-04T07:30:33;19.80;82.20
38854;DHT22;24606;51.992;4.198;2022-11-04T07:35:35;19.70;82.60
38854;DHT22;24606;51.992;4.198;2022-11-04T07:40:38;19.70;82.50
38854;DHT22;24606;51.992;4.198;2022-11-04T07:45:41;19.70;82.30
38854;DHT22;24606;51.992;4.198;2022-11-04T07:50:43;19.80;82.20
38854;DHT22;24606;51.992;4.198;2022-11-04T07:55:45;19.70;82.70
38854;DHT22;24606;51.992;4.198;2022-11-04T08:00:57;19.80;82.10
38854;DHT22;24606;51.992;4.198;2022-11-04T08:06:01;19.80;82.10
38854;DHT22;24606;51.992;4.198;2022-11-04T08:11:05;19.70;82.50
38854;DHT22;24606;51.992;4.198;2022-11-04T08:16:11;19.80;81.90
38854;DHT22;24606;51.992;4.198;2022-11-04T08:21:14;19.80;81.90
38854;DHT22;24606;51.992;4.198;2022-11-04T08:26:18;20.00;81.10
38854;DHT22;24606;51.992;4.198;2022-11-04T08:31:23;20.00;80.70
38854;DHT22;24606;51.992;4.198;2022-11-04T08:36:27;20.00;80.20
38854;DHT22;24606;51.992;4.198;2022-11-04T08:41:31;20.00;79.80
38854;DHT22;24606;51.992;4.198;2022-11-04T08:46:37;20.10;79.80
38854;DHT22;24606;51.992;4.198;2022-11-04T08:51:42;20.10;79.50
38854;DHT22;24606;51.992;4.198;2022-11-04T08:56:44;20.10;79.30
38854;DHT22;24606;51.992;4.198;2022-11-04T09:01:47;20.10;79.10
38854;DHT22;24606;51.992;4.198;2022-11-04T09:06:50;20.10;78.90
38854;DHT22;24606;51.992;4.198;2022-11-04T09:11:52;20.10;78.60
38854;DHT22;24606;51.992;4.198;2022-11-04T09:16:56;20.10;78.50
38854;DHT22;24606;51.992;4.198;2022-11-04T09:21:58;20.00;78.80
38854;DHT22;24606;51.992;4.198;2022-11-04T09:27:00;20.00;78.70
38854;DHT22;24606;51.992;4.198;2022-11-04T09:32:03;20.10;78.40
38854;DHT22;24606;51.992;4.198;2022-11-04T09:37:06;20.00;78.60
38854;DHT22;24606;51.992;4.198;2022-11-04T09:42:20;20.00;78.30
38854;DHT22;24606;51.992;4.198;2022-11-04T09:47:27;20.00;78.20
38854;DHT22;24606;51.992;4.198;2022-11-04T09:52:34;20.00;78.20
38854;DHT22;24606;51.992;4.198;2022-11-04T09:57:38;20.00;78.00
38854;DHT22;24606;51.992;4.198;2022-11-04T10:02:48;18.90;85.30
38854;DHT22;24606;51.992;4.198;2022-11-04T10:08:06;19.90;78.80
38854;DHT22;24606;51.992;4.198;2022-11-04T10:13:23;20.00;78.00
38854;DHT22;24606;51.992;4.198;2022-11-04T10:18:49;20.00;77.50
38854;DHT22;24606;51.992;4.198;2022-11-04T10:24:04;20.00;77.30
38854;DHT22;24606;51.992;4.198;2022-11-04T10:29:13;20.10;77.10
38854;DHT22;24606;51.992;4.198;2022-11-04T10:34:25;20.10;76.70
38854;DHT22;24606;51.992;4.198;2022-11-04T10:39:30;19.50;78.80
38854;DHT22;24606;51.992;4.198;2022-11-04T10:44:33;20.00;77.10
38854;DHT22;24606;51.992;4.198;2022-11-04T10:55:13;20.00;77.10
38854;DHT22;24606;51.992;4.198;2022-11-04T11:00:35;20.00;76.50
38854;DHT22;24606;51.992;4.198;2022-11-04T11:05:39;20.00;76.30
38854;DHT22;24606;51.992;4.198;2022-11-04T11:10:50;20.00;75.90
38854;DHT22;24606;51.992;4.198;2022-11-04T11:16:05;19.80;75.00
38854;DHT22;24606;51.992;4.198;2022-11-04T11:21:11;20.00;76.40
38854;DHT22;24606;51.992;4.198;2022-11-04T11:26:15;19.40;80.10
38854;DHT22;24606;51.992;4.198;2022-11-04T11:31:17;19.70;77.50
38854;DHT22;24606;51.992;4.198;2022-11-04T11:36:29;19.20;80.30
38854;DHT22;24606;51.992;4.198;2022-11-04T11:41:33;18.10;82.10
38854;DHT22;24606;51.992;4.198;2022-11-04T11:46:36;19.30;80.80
38854;DHT22;24606;51.992;4.198;2022-11-04T11:51:43;18.40;82.00
38854;DHT22;24606;51.992;4.198;2022-11-04T11:56:47;19.80;76.20
38854;DHT22;24606;51.992;4.198;2022-11-04T12:01:57;20.00;75.10
38854;DHT22;24606;51.992;4.198;2022-11-04T12:07:08;20.00;74.90
38854;DHT22;24606;51.992;4.198;2022-11-04T12:12:30;20.00;74.60
38854;DHT22;24606;51.992;4.198;2022-11-04T12:17:45;20.00;74.60
38854;DHT22;24606;51.992;4.198;2022-11-04T12:22:55;20.00;74.20
38854;DHT22;24606;51.992;4.198;2022-11-04T12:28:06;20.00;74.10
38854;DHT22;24606;51.992;4.198;2022-11-04T12:33:20;20.00;74.20
38854;DHT22;24606;51.992;4.198;2022-11-04T12:38:46;16.40;84.80
38854;DHT22;24606;51.992;4.198;2022-11-04T12:43:54;19.20;81.90
38854;DHT22;24606;51.992;4.198;2022-11-04T12:49:22;19.80;76.80
38854;DHT22;24606;51.992;4.198;2022-11-04T12:54:52;19.90;75.40
38854;DHT22;24606;51.992;4.198;2022-11-04T13:00:08;20.00;74.80
38854;DHT22;24606;51.992;4.198;2022-11-04T13:05:25;20.00;74.40
38854;DHT22;24606;51.992;4.198;2022-11-04T13:10:38;20.80;73.10
38854;DHT22;24606;51.992;4.198;2022-11-04T13:15:44;21.00;70.10
38854;DHT22;24606;51.992;4.198;2022-11-04T13:20:52;21.00;68.60
38854;DHT22;24606;51.992;4.198;2022-11-04T13:25:57;20.90;70.10
38854;DHT22;24606;51.992;4.198;2022-11-04T13:31:04;20.90;70.10
38854;DHT22;24606;51.992;4.198;2022-11-04T13:36:18;21.10;70.40
38854;DHT22;24606;51.992;4.198;2022-11-04T13:41:54;21.20;72.30
38854;DHT22;24606;51.992;4.198;2022-11-04T13:47:02;21.40;71.40
38854;DHT22;24606;51.992;4.198;2022-11-04T13:52:07;21.40;69.30
38854;DHT22;24606;51.992;4.198;2022-11-04T13:57:14;21.20;69.40
38854;DHT22;24606;51.992;4.198;2022-11-04T14:02:24;21.30;69.50
38854;DHT22;24606;51.992;4.198;2022-11-04T14:08:08;21.30;69.70
38854;DHT22;24606;51.992;4.198;2022-11-04T14:13:43;21.20;69.80
38854;DHT22;24606;51.992;4.198;2022-11-04T14:18:46;21.30;69.70
38854;DHT22;24606;51.992;4.198;2022-11-04T14:23:51;21.30;69.70
38854;DHT22;24606;51.992;4.198;2022-11-04T14:29:02;21.30;69.60
38854;DHT22;24606;51.992;4.198;2022-11-04T14:34:07;21.40;69.50
38854;DHT22;24606;51.992;4.198;2022-11-04T14:39:26;21.40;69.50
38854;DHT22;24606;51.992;4.198;2022-11-04T14:44:34;21.30;69.50
38854;DHT22;24606;51.992;4.198;2022-11-04T14:49:41;21.40;69.40
38854;DHT22;24606;51.992;4.198;2022-11-04T14:54:44;21.40;69.30
38854;DHT22;24606;51.992;4.198;2022-11-04T14:59:48;21.30;69.10
38854;DHT22;24606;51.992;4.198;2022-11-04T15:04:55;21.30;68.90
38854;DHT22;24606;51.992;4.198;2022-11-04T15:09:58;21.30;68.90
38854;DHT22;24606;51.992;4.198;2022-11-04T15:15:27;21.40;68.90
38854;DHT22;24606;51.992;4.198;2022-11-04T15:20:30;21.40;68.70
38854;DHT22;24606;51.992;4.198;2022-11-04T15:25:32;21.40;68.80
38854;DHT22;24606;51.992;4.198;2022-11-04T15:30:36;21.50;68.60
38854;DHT22;24606;51.992;4.198;2022-11-04T15:35:38;20.70;73.00
38854;DHT22;24606;51.992;4.198;2022-11-04T15:40:43;19.80;75.40
38854;DHT22;24606;51.992;4.198;2022-11-04T15:45:51;20.90;72.60
38854;DHT22;24606;51.992;4.198;2022-11-04T15:51:12;21.10;71.70
38854;DHT22;24606;51.992;4.198;2022-11-04T15:56:16;21.30;69.80
38854;DHT22;24606;51.992;4.198;2022-11-04T16:01:20;21.40;69.80
38854;DHT22;24606;51.992;4.198;2022-11-04T16:06:34;21.10;70.90
38854;DHT22;24606;51.992;4.198;2022-11-04T16:11:37;21.00;71.40
38854;DHT22;24606;51.992;4.198;2022-11-04T16:16:45;21.30;69.90
38854;DHT22;24606;51.992;4.198;2022-11-04T16:21:58;21.20;68.70
38854;DHT22;24606;51.992;4.198;2022-11-04T16:27:00;21.30;69.70
38854;DHT22;24606;51.992;4.198;2022-11-04T16:32:16;21.50;68.70
38854;DHT22;24606;51.992;4.198;2022-11-04T16:37:18;21.50;68.00
38854;DHT22;24606;51.992;4.198;2022-11-04T16:42:21;21.40;68.40
38854;DHT22;24606;51.992;4.198;2022-11-04T16:47:24;21.20;69.40
38854;DHT22;24606;51.992;4.198;2022-11-04T16:52:28;20.90;71.90
38854;DHT22;24606;51.992;4.198;2022-11-04T16:57:31;21.20;67.80
38854;DHT22;24606;51.992;4.198;2022-11-04T17:02:35;21.30;68.00
38854;DHT22;24606;51.992;4.198;2022-11-04T17:07:40;20.30;66.60
38854;DHT22;24606;51.992;4.198;2022-11-04T17:12:43;19.60;77.40
38854;DHT22;24606;51.992;4.198;2022-11-04T17:17:47;20.70;72.50
38854;DHT22;24606;51.992;4.198;2022-11-04T17:22:49;21.10;69.40
38854;DHT22;24606;51.992;4.198;2022-11-04T17:27:53;21.10;69.60
38854;DHT22;24606;51.992;4.198;2022-11-04T17:32:56;20.50;73.60
38854;DHT22;24606;51.992;4.198;2022-11-04T17:37:58;19.70;76.20
38854;DHT22;24606;51.992;4.198;2022-11-04T17:43:00;20.40;74.90
38854;DHT22;24606;51.992;4.198;2022-11-04T17:48:21;21.00;71.20
38854;DHT22;24606;51.992;4.198;2022-11-04T17:53:23;21.30;69.50
38854;DHT22;24606;51.992;4.198;2022-11-04T17:58:25;20.90;71.40
38854;DHT22;24606;51.992;4.198;2022-11-04T18:03:31;20.80;72.10
38854;DHT22;24606;51.992;4.198;2022-11-04T18:08:34;21.10;71.30
38854;DHT22;24606;51.992;4.198;2022-11-04T18:13:36;20.80;72.10
38854;DHT22;24606;51.992;4.198;2022-11-04T18:18:40;20.80;73.20
38854;DHT22;24606;51.992;4.198;2022-11-04T18:23:42;20.80;72.90
38854;DHT22;24606;51.992;4.198;2022-11-04T18:28:44;20.60;73.60
38854;DHT22;24606;51.992;4.198;2022-11-04T18:33:47;16.60;73.20
38854;DHT22;24606;51.992;4.198;2022-11-04T18:38:49;14.60;94.90
38854;DHT22;24606;51.992;4.198;2022-11-04T18:43:51;14.10;99.90
38854;DHT22;24606;51.992;4.198;2022-11-04T18:48:54;17.10;95.80
38854;DHT22;24606;51.992;4.198;2022-11-04T18:53:56;18.60;89.40
38854;DHT22;24606;51.992;4.198;2022-11-04T18:58:58;17.80;93.20
38854;DHT22;24606;51.992;4.198;2022-11-04T19:04:02;20.00;80.20
38854;DHT22;24606;51.992;4.198;2022-11-04T19:09:07;20.40;75.90
38854;DHT22;24606;51.992;4.198;2022-11-04T19:14:12;20.50;74.70
38854;DHT22;24606;51.992;4.198;2022-11-04T19:19:16;20.70;74.00
38854;DHT22;24606;51.992;4.198;2022-11-04T19:24:17;19.30;80.60
38854;DHT22;24606;51.992;4.198;2022-11-04T19:29:19;17.20;73.60
38854;DHT22;24606;51.992;4.198;2022-11-04T19:34:23;16.50;95.40
38854;DHT22;24606;51.992;4.198;2022-11-04T19:39:25;13.60;95.70
38854;DHT22;24606;51.992;4.198;2022-11-04T19:44:27;15.00;98.00
38854;DHT22;24606;51.992;4.198;2022-11-04T19:49:30;14.50;96.90
38854;DHT22;24606;51.992;4.198;2022-11-04T19:54:32;15.90;91.90
38854;DHT22;24606;51.992;4.198;2022-11-04T19:59:35;17.30;94.30
38854;DHT22;24606;51.992;4.198;2022-11-04T20:04:38;18.30;91.00
38854;DHT22;24606;51.992;4.198;2022-11-04T20:09:41;18.80;87.80
38854;DHT22;24606;51.992;4.198;2022-11-04T20:14:43;17.10;91.70
38854;DHT22;24606;51.992;4.198;2022-11-04T20:19:46;16.60;96.60
38854;DHT22;24606;51.992;4.198;2022-11-04T20:24:48;16.30;93.60
38854;DHT22;24606;51.992;4.198;2022-11-04T20:29:50;16.60;92.40
38854;DHT22;24606;51.992;4.198;2022-11-04T20:34:53;16.00;98.50
38854;DHT22;24606;51.992;4.198;2022-11-04T20:39:55;16.20;97.70
38854;DHT22;24606;51.992;4.198;2022-11-04T20:44:57;14.80;92.40
38854;DHT22;24606;51.992;4.198;2022-11-04T20:50:01;15.30;93.10
38854;DHT22;24606;51.992;4.198;2022-11-04T20:55:03;15.80;99.40
38854;DHT22;24606;51.992;4.198;2022-11-04T21:00:06;16.40;94.30
38854;DHT22;24606;51.992;4.198;2022-11-04T21:05:10;14.70;93.50
38854;DHT22;24606;51.992;4.198;2022-11-04T21:10:12;16.70;96.40
38854;DHT22;24606;51.992;4.198;2022-11-04T21:15:14;16.10;86.30
38854;DHT22;24606;51.992;4.198;2022-11-04T21:20:34;16.30;97.30
38854;DHT22;24606;51.992;4.198;2022-11-04T21:25:41;17.20;94.30
38854;DHT22;24606;51.992;4.198;2022-11-04T21:30:46;16.90;77.40
38854;DHT22;24606;51.992;4.198;2022-11-04T21:35:50;16.80;94.00
38854;DHT22;24606;51.992;4.198;2022-11-04T21:40:52;14.90;97.40
38854;DHT22;24606;51.992;4.198;2022-11-04T21:46:00;16.80;94.00
38854;DHT22;24606;51.992;4.198;2022-11-04T21:51:05;17.40;93.50
38854;DHT22;24606;51.992;4.198;2022-11-04T21:56:10;15.70;97.00
38854;DHT22;24606;51.992;4.198;2022-11-04T22:01:15;16.80;94.20
38854;DHT22;24606;51.992;4.198;2022-11-04T22:06:18;17.10;78.60
38854;DHT22;24606;51.992;4.198;2022-11-04T22:11:22;16.90;94.70
38854;DHT22;24606;51.992;4.198;2022-11-04T22:16:26;15.20;84.80
38854;DHT22;24606;51.992;4.198;2022-11-04T22:21:30;15.50;76.90
38854;DHT22;24606;51.992;4.198;2022-11-04T22:26:32;17.10;73.10
38854;DHT22;24606;51.992;4.198;2022-11-04T22:31:36;17.40;79.60
38854;DHT22;24606;51.992;4.198;2022-11-04T22:36:39;17.00;91.70
38854;DHT22;24606;51.992;4.198;2022-11-04T22:41:41;17.60;90.00
38854;DHT22;24606;51.992;4.198;2022-11-04T22:46:43;18.10;90.10
38854;DHT22;24606;51.992;4.198;2022-11-04T22:51:47;18.00;90.30
38854;DHT22;24606;51.992;4.198;2022-11-04T22:56:48;19.10;82.60
38854;DHT22;24606;51.992;4.198;2022-11-04T23:01:50;18.60;86.20
38854;DHT22;24606;51.992;4.198;2022-11-04T23:06:53;18.90;84.10
38854;DHT22;24606;51.992;4.198;2022-11-04T23:11:55;19.00;77.80
38854;DHT22;24606;51.992;4.198;2022-11-04T23:17:17;19.00;83.00
38854;DHT22;24606;51.992;4.198;2022-11-04T23:22:38;18.80;81.70
38854;DHT22;24606;51.992;4.198;2022-11-04T23:27:58;19.20;80.50
38854;DHT22;24606;51.992;4.198;2022-11-04T23:33:26;18.90;83.20
38854;DHT22;24606;51.992;4.198;2022-11-04T23:38:44;19.10;78.50
38854;DHT22;24606;51.992;4.198;2022-11-04T23:43:46;19.60;77.50
38854;DHT22;24606;51.992;4.198;2022-11-04T23:48:48;19.60;77.00
38854;DHT22;24606;51.992;4.198;2022-11-04T23:54:09;19.60;76.40
38854;DHT22;24606;51.992;4.198;2022-11-04T23:59:28;19.70;76.80
